createdAt,value
2019-03-17T00:03:04.995Z,1.13
2019-03-17T00:08:10.178Z,1.40
2019-03-17T00:13:17.767Z,1.40
2019-03-17T00:18:23.151Z,1.37
2019-03-17T00:23:28.314Z,1.60
2019-03-17T00:28:33.341Z,1.20
2019-03-17T00:33:38.580Z,1.30
2019-03-17T00:38:43.864Z,1.17
2019-03-17T00:43:49.130Z,1.23
2019-03-17T00:48:53.952Z,1.60
2019-03-17T00:53:59.150Z,1.07
2019-03-17T00:59:04.351Z,1.50
2019-03-17T01:04:09.210Z,1.60
2019-03-17T01:09:14.545Z,1.40
2019-03-17T01:14:19.774Z,1.60
2019-03-17T01:19:25.190Z,1.57
2019-03-17T01:24:30.388Z,1.70
2019-03-17T01:29:36.095Z,1.90
2019-03-17T01:34:41.415Z,1.30
2019-03-17T01:39:46.602Z,1.60
2019-03-17T01:44:52.261Z,1.43
2019-03-17T01:50:09.735Z,1.43
2019-03-17T01:55:14.971Z,1.60
2019-03-17T02:00:19.870Z,1.70
2019-03-17T02:05:24.702Z,2.00
2019-03-17T02:10:30.265Z,1.67
2019-03-17T02:15:35.189Z,1.70
2019-03-17T02:20:40.406Z,1.70
2019-03-17T02:25:45.880Z,1.70
2019-03-17T02:30:50.829Z,1.60
2019-03-17T02:35:56.195Z,1.70
2019-03-17T02:41:01.446Z,1.90
2019-03-17T02:46:06.694Z,1.67
2019-03-17T02:51:11.584Z,1.70
2019-03-17T02:56:17.111Z,1.90
2019-03-17T03:01:22.222Z,1.83
2019-03-17T03:06:27.820Z,2.07
2019-03-17T03:11:33.259Z,1.70
2019-03-17T03:16:38.666Z,1.73
2019-03-17T03:21:43.926Z,1.93
2019-03-17T03:26:49.195Z,2.07
2019-03-17T03:31:54.202Z,2.03
2019-03-17T03:36:59.153Z,1.80
2019-03-17T03:42:03.965Z,1.80
2019-03-17T03:47:09.433Z,1.87
2019-03-17T03:52:14.585Z,2.10
2019-03-17T03:57:19.465Z,2.00
2019-03-17T04:02:24.718Z,2.20
2019-03-17T04:07:29.952Z,1.80
2019-03-17T04:12:35.436Z,1.40
2019-03-17T04:17:40.429Z,1.97
2019-03-17T04:22:45.395Z,1.87
2019-03-17T04:27:50.821Z,1.80
2019-03-17T04:32:56.613Z,1.93
2019-03-17T04:38:01.794Z,1.80
2019-03-17T04:43:06.912Z,1.83
2019-03-17T04:48:11.884Z,1.50
2019-03-17T04:53:16.690Z,1.50
2019-03-17T04:58:21.771Z,1.93
2019-03-17T05:03:27.072Z,1.77
2019-03-17T05:08:32.754Z,2.20
2019-03-17T05:13:37.905Z,1.57
2019-03-17T05:18:43.227Z,1.80
2019-03-17T05:23:48.089Z,2.10
2019-03-17T05:28:53.379Z,1.60
2019-03-17T05:33:59.067Z,1.63
2019-03-17T05:39:05.637Z,1.60
2019-03-17T05:44:10.788Z,1.73
2019-03-17T05:49:15.723Z,1.50
2019-03-17T05:54:20.711Z,1.40
2019-03-17T05:59:26.224Z,1.40
2019-03-17T06:04:31.706Z,1.53
2019-03-17T06:09:37.123Z,1.60
2019-03-17T06:14:42.335Z,1.50
2019-03-17T06:19:47.701Z,1.70
2019-03-17T06:24:53.035Z,1.60
2019-03-17T06:29:58.141Z,1.30
2019-03-17T06:35:03.189Z,1.27
2019-03-17T06:40:08.933Z,1.30
2019-03-17T06:45:14.093Z,1.57
2019-03-17T06:50:19.378Z,1.30
2019-03-17T06:55:24.889Z,1.00
2019-03-17T07:00:29.900Z,1.03
2019-03-17T07:05:35.202Z,0.83
2019-03-17T07:10:40.838Z,0.50
2019-03-17T07:15:45.764Z,0.90
2019-03-17T07:20:51.367Z,0.80
2019-03-17T07:25:56.890Z,0.50
2019-03-17T07:31:02.675Z,0.53
2019-03-17T07:36:07.721Z,0.40
2019-03-17T07:41:12.830Z,0.40
2019-03-17T07:46:18.552Z,0.50
2019-03-17T07:51:23.782Z,0.40
2019-03-17T07:56:29.170Z,0.53
2019-03-17T08:01:34.648Z,0.30
2019-03-17T08:06:39.925Z,0.50
2019-03-17T08:11:44.976Z,0.40
2019-03-17T08:16:50.593Z,0.40
2019-03-17T08:21:56.153Z,0.40
2019-03-17T08:27:01.354Z,0.30
2019-03-17T08:32:06.678Z,0.40
2019-03-17T08:37:11.869Z,0.43
2019-03-17T08:42:20.857Z,0.40
2019-03-17T08:47:26.084Z,0.50
2019-03-17T08:52:34.099Z,0.67
2019-03-17T08:57:37.604Z,0.40
2019-03-17T09:02:42.722Z,0.50
2019-03-17T09:07:47.927Z,0.70
2019-03-17T09:12:53.458Z,0.90
2019-03-17T09:17:58.961Z,0.80
2019-03-17T09:23:04.402Z,1.00
2019-03-17T09:28:09.318Z,0.83
2019-03-17T09:33:15.076Z,1.00
2019-03-17T09:38:21.229Z,1.17
2019-03-17T09:43:26.249Z,1.27
2019-03-17T09:48:31.504Z,0.73
2019-03-17T09:53:36.486Z,0.80
2019-03-17T09:58:41.730Z,0.60
2019-03-17T10:03:46.855Z,0.90
2019-03-17T10:09:00.087Z,1.00
2019-03-17T10:13:58.983Z,0.80
2019-03-17T10:19:04.147Z,0.83
2019-03-17T10:24:09.205Z,0.80
2019-03-17T10:29:14.118Z,0.80
2019-03-17T10:34:22.397Z,0.67
2019-03-17T10:39:29.064Z,0.80
2019-03-17T10:44:33.941Z,0.60
2019-03-17T10:49:39.197Z,0.60
2019-03-17T10:54:44.270Z,0.60
2019-03-17T10:59:49.563Z,0.70
2019-03-17T11:04:54.761Z,0.53
2019-03-17T11:10:00.376Z,1.00
2019-03-17T11:15:05.837Z,0.50
2019-03-17T11:20:10.953Z,0.70
2019-03-17T11:25:16.550Z,0.60
2019-03-17T11:30:25.086Z,0.60
2019-03-17T11:35:30.005Z,0.60
2019-03-17T11:40:34.946Z,0.70
2019-03-17T11:45:40.098Z,0.90
2019-03-17T11:50:45.279Z,0.80
2019-03-17T11:55:50.463Z,0.60
2019-03-17T12:00:55.357Z,0.80
2019-03-17T12:06:00.520Z,0.70
2019-03-17T12:11:05.661Z,0.60
2019-03-17T12:16:10.854Z,0.60
2019-03-17T12:21:16.130Z,0.67
2019-03-17T12:26:22.849Z,0.60
2019-03-17T12:31:28.146Z,0.50
2019-03-17T12:36:33.349Z,0.40
2019-03-17T12:41:38.548Z,0.63
2019-03-17T12:46:43.941Z,0.40
2019-03-17T12:51:49.078Z,1.00
2019-03-17T12:56:54.045Z,0.50
2019-03-17T13:01:59.284Z,1.00
2019-03-17T13:07:04.562Z,0.70
2019-03-17T13:12:09.785Z,0.60
2019-03-17T13:17:14.773Z,0.50
2019-03-17T13:22:19.938Z,0.70
2019-03-17T13:27:25.045Z,0.60
2019-03-17T13:32:29.965Z,0.60
2019-03-17T13:37:35.199Z,0.60
2019-03-17T13:42:40.611Z,0.53
2019-03-17T13:47:45.475Z,0.60
2019-03-17T13:52:50.885Z,0.47
2019-03-17T13:57:57.305Z,0.73
2019-03-17T14:03:02.706Z,0.70
2019-03-17T14:08:07.850Z,0.70
2019-03-17T14:13:13.065Z,0.70
2019-03-17T14:18:18.257Z,0.80
2019-03-17T14:23:23.133Z,0.80
2019-03-17T14:28:28.310Z,0.50
2019-03-17T14:33:33.189Z,0.37
2019-03-17T14:38:38.754Z,0.60
2019-03-17T14:43:43.857Z,0.50
2019-03-17T14:48:48.780Z,0.77
2019-03-17T14:53:53.984Z,0.50
2019-03-17T14:58:59.281Z,0.50
2019-03-17T15:04:04.417Z,0.80
2019-03-17T15:09:09.417Z,0.70
2019-03-17T15:14:14.733Z,0.60
2019-03-17T15:19:19.878Z,0.70
2019-03-17T15:24:24.781Z,1.93
2019-03-17T15:29:29.864Z,0.80
2019-03-17T15:34:35.596Z,4.33
2019-03-17T15:39:40.821Z,1.27
2019-03-17T15:44:46.514Z,0.60
2019-03-17T15:49:52.010Z,0.73
2019-03-17T15:54:56.844Z,0.80
2019-03-17T16:00:01.950Z,0.80
2019-03-17T16:05:07.084Z,0.90
2019-03-17T16:10:13.069Z,0.73
2019-03-17T16:15:18.814Z,1.00
2019-03-17T16:20:23.773Z,1.50
2019-03-17T16:25:29.754Z,1.30
2019-03-17T16:30:34.853Z,0.87
2019-03-17T16:35:39.909Z,0.70
2019-03-17T16:40:45.079Z,0.63
2019-03-17T16:45:50.266Z,0.50
2019-03-17T16:50:55.181Z,0.43
2019-03-17T16:56:00.347Z,0.53
2019-03-17T17:01:05.610Z,0.60
2019-03-17T17:06:10.999Z,0.70
2019-03-17T17:11:16.245Z,1.33
2019-03-17T17:16:21.995Z,1.30
2019-03-17T17:21:26.890Z,1.00
2019-03-17T17:26:37.245Z,1.10
2019-03-17T17:31:38.770Z,0.50
2019-03-17T17:36:44.105Z,0.43
2019-03-17T17:41:49.108Z,0.50
2019-03-17T17:46:54.546Z,1.20
2019-03-17T17:51:59.994Z,1.23
2019-03-17T17:57:05.215Z,1.10
2019-03-17T18:02:10.467Z,0.90
2019-03-17T18:07:15.473Z,0.70
2019-03-17T18:12:21.501Z,1.57
2019-03-17T18:17:26.903Z,1.37
2019-03-17T18:22:32.385Z,1.30
2019-03-17T18:27:37.437Z,1.00
2019-03-17T18:32:42.877Z,0.80
2019-03-17T18:37:50.949Z,0.80
2019-03-17T18:42:54.841Z,0.70
2019-03-17T18:47:59.979Z,0.80
2019-03-17T18:53:04.877Z,1.03
2019-03-17T18:58:09.758Z,0.80
2019-03-17T19:03:15.186Z,1.00
2019-03-17T19:08:20.157Z,0.83
2019-03-17T19:13:25.571Z,0.80
2019-03-17T19:18:31.901Z,0.70
2019-03-17T19:23:36.752Z,0.60
2019-03-17T19:28:42.214Z,0.80
2019-03-17T19:33:47.532Z,0.60
2019-03-17T19:38:52.942Z,0.50
2019-03-17T19:43:58.135Z,0.53
2019-03-17T19:49:03.067Z,0.80
2019-03-17T19:54:08.348Z,0.70
2019-03-17T19:59:13.835Z,0.63
2019-03-17T20:04:30.050Z,0.80
2019-03-17T20:09:26.304Z,0.60
2019-03-17T20:14:31.367Z,0.90
2019-03-17T20:19:36.404Z,1.00
2019-03-17T20:24:41.455Z,1.20
2019-03-17T20:29:47.226Z,2.13
2019-03-17T20:34:52.222Z,1.70
2019-03-17T20:39:57.552Z,1.17
2019-03-17T20:45:02.562Z,0.97
2019-03-17T20:50:08.661Z,1.00
2019-03-17T20:55:14.155Z,1.10
2019-03-17T21:00:19.177Z,0.90
2019-03-17T21:05:24.375Z,1.00
2019-03-17T21:10:29.755Z,0.80
2019-03-17T21:15:35.038Z,0.80
2019-03-17T21:20:40.830Z,1.00
2019-03-17T21:25:46.025Z,1.10
2019-03-17T21:30:51.138Z,1.10
2019-03-17T21:35:56.691Z,1.30
2019-03-17T21:41:07.304Z,0.87
2019-03-17T21:46:09.107Z,1.13
2019-03-17T21:51:14.285Z,0.70
2019-03-17T21:56:19.448Z,0.90
2019-03-17T22:01:24.792Z,0.77
2019-03-17T22:06:30.047Z,0.77
2019-03-17T22:11:35.695Z,1.10
2019-03-17T22:16:41.172Z,0.93
2019-03-17T22:21:46.336Z,1.07
2019-03-17T22:26:51.653Z,1.20
2019-03-17T22:31:56.557Z,1.30
2019-03-17T22:37:01.484Z,1.13
2019-03-17T22:42:06.293Z,1.50
2019-03-17T22:47:11.677Z,1.10
2019-03-17T22:52:16.573Z,1.10
2019-03-17T22:57:22.065Z,0.90
2019-03-17T23:02:27.376Z,1.10
2019-03-17T23:07:32.431Z,1.03
2019-03-17T23:12:37.676Z,1.10
2019-03-17T23:17:43.476Z,1.07
2019-03-17T23:22:48.505Z,1.20
2019-03-17T23:27:53.659Z,1.67
2019-03-17T23:32:58.721Z,1.23
2019-03-17T23:38:03.774Z,1.70
2019-03-17T23:43:08.673Z,1.37
2019-03-17T23:48:13.583Z,1.80
2019-03-17T23:53:18.909Z,1.97
2019-03-17T23:58:24.220Z,1.67
